sensor_id;sensor_type;location;lat;lon;timestamp;temperature;humidity
7958;DHT22;4024;52.172;5.378;2022-09-03T00:00:03;20.80;83.80
7958;DHT22;4024;52.172;5.378;2022-09-03T00:02:42;20.80;83.70
7958;DHT22;4024;52.172;5.378;2022-09-03T00:05:34;20.80;84.40
7958;DHT22;4024;52.172;5.378;2022-09-03T00:13:26;20.70;85.50
7958;DHT22;4024;52.172;5.378;2022-09-03T00:15:56;20.70;85.70
7958;DHT22;4024;52.172;5.378;2022-09-03T00:18:26;20.60;86.10
7958;DHT22;4024;52.172;5.378;2022-09-03T00:21:02;20.60;86.20
7958;DHT22;4024;52.172;5.378;2022-09-03T00:23:34;20.60;86.60
7958;DHT22;4024;52.172;5.378;2022-09-03T00:33:53;20.50;87.70
7958;DHT22;4024;52.172;5.378;2022-09-03T00:36:37;20.50;87.90
7958;DHT22;4024;52.172;5.378;2022-09-03T00:39:09;20.40;87.90
7958;DHT22;4024;52.172;5.378;2022-09-03T00:42:20;20.40;88.10
7958;DHT22;4024;52.172;5.378;2022-09-03T00:47:11;20.30;88.50
7958;DHT22;4024;52.172;5.378;2022-09-03T00:52:40;20.20;89.40
7958;DHT22;4024;52.172;5.378;2022-09-03T01:04:25;20.20;90.10
7958;DHT22;4024;52.172;5.378;2022-09-03T01:07:11;20.10;90.20
7958;DHT22;4024;52.172;5.378;2022-09-03T01:09:52;20.10;90.50
7958;DHT22;4024;52.172;5.378;2022-09-03T01:15:07;20.00;90.80
7958;DHT22;4024;52.172;5.378;2022-09-03T01:20:38;20.00;91.20
7958;DHT22;4024;52.172;5.378;2022-09-03T01:28:43;19.80;91.40
7958;DHT22;4024;52.172;5.378;2022-09-03T01:45:30;19.80;92.20
7958;DHT22;4024;52.172;5.378;2022-09-03T01:59:26;19.60;92.70
7958;DHT22;4024;52.172;5.378;2022-09-03T02:04:26;19.60;93.10
7958;DHT22;4024;52.172;5.378;2022-09-03T02:06:55;19.60;93.10
7958;DHT22;4024;52.172;5.378;2022-09-03T02:09:22;19.60;93.40
7958;DHT22;4024;52.172;5.378;2022-09-03T02:12:10;19.60;93.50
7958;DHT22;4024;52.172;5.378;2022-09-03T02:14:39;19.60;93.50
7958;DHT22;4024;52.172;5.378;2022-09-03T02:17:06;19.50;93.50
7958;DHT22;4024;52.172;5.378;2022-09-03T02:19:33;19.60;93.50
7958;DHT22;4024;52.172;5.378;2022-09-03T02:22:01;19.60;93.50
7958;DHT22;4024;52.172;5.378;2022-09-03T02:24:27;19.60;93.60
7958;DHT22;4024;52.172;5.378;2022-09-03T02:26:53;19.50;93.70
7958;DHT22;4024;52.172;5.378;2022-09-03T02:29:19;19.50;93.70
7958;DHT22;4024;52.172;5.378;2022-09-03T02:31:45;19.50;93.90
7958;DHT22;4024;52.172;5.378;2022-09-03T02:34:11;19.50;94.00
7958;DHT22;4024;52.172;5.378;2022-09-03T02:36:43;19.50;94.00
7958;DHT22;4024;52.172;5.378;2022-09-03T02:39:11;19.40;94.10
7958;DHT22;4024;52.172;5.378;2022-09-03T02:41:38;19.40;94.30
7958;DHT22;4024;52.172;5.378;2022-09-03T02:44:19;19.50;94.40
7958;DHT22;4024;52.172;5.378;2022-09-03T02:46:57;19.40;94.50
7958;DHT22;4024;52.172;5.378;2022-09-03T02:49:23;19.30;94.50
7958;DHT22;4024;52.172;5.378;2022-09-03T02:51:49;19.30;94.60
7958;DHT22;4024;52.172;5.378;2022-09-03T02:54:14;19.30;94.70
7958;DHT22;4024;52.172;5.378;2022-09-03T02:56:40;19.30;94.80
7958;DHT22;4024;52.172;5.378;2022-09-03T02:59:08;19.20;94.80
7958;DHT22;4024;52.172;5.378;2022-09-03T03:01:34;19.20;95.10
7958;DHT22;4024;52.172;5.378;2022-09-03T03:04:00;19.20;95.20
7958;DHT22;4024;52.172;5.378;2022-09-03T03:06:26;19.10;95.40
7958;DHT22;4024;52.172;5.378;2022-09-03T03:08:51;19.10;95.40
7958;DHT22;4024;52.172;5.378;2022-09-03T03:11:21;19.00;95.50
7958;DHT22;4024;52.172;5.378;2022-09-03T03:13:50;19.00;95.70
7958;DHT22;4024;52.172;5.378;2022-09-03T03:16:16;19.00;95.80
7958;DHT22;4024;52.172;5.378;2022-09-03T03:18:41;19.00;95.90
7958;DHT22;4024;52.172;5.378;2022-09-03T03:21:15;19.00;96.00
7958;DHT22;4024;52.172;5.378;2022-09-03T03:23:41;18.90;96.10
7958;DHT22;4024;52.172;5.378;2022-09-03T03:26:10;19.00;96.20
7958;DHT22;4024;52.172;5.378;2022-09-03T03:28:36;18.90;96.20
7958;DHT22;4024;52.172;5.378;2022-09-03T03:33:36;18.90;96.60
7958;DHT22;4024;52.172;5.378;2022-09-03T03:36:10;18.70;96.40
7958;DHT22;4024;52.172;5.378;2022-09-03T03:38:36;18.80;96.60
7958;DHT22;4024;52.172;5.378;2022-09-03T03:41:09;18.80;96.60
7958;DHT22;4024;52.172;5.378;2022-09-03T03:43:35;18.80;96.80
7958;DHT22;4024;52.172;5.378;2022-09-03T03:46:01;18.80;96.80
7958;DHT22;4024;52.172;5.378;2022-09-03T03:48:27;18.80;96.80
7958;DHT22;4024;52.172;5.378;2022-09-03T03:50:52;18.80;97.00
7958;DHT22;4024;52.172;5.378;2022-09-03T03:53:18;18.80;97.10
7958;DHT22;4024;52.172;5.378;2022-09-03T03:55:58;18.80;97.10
7958;DHT22;4024;52.172;5.378;2022-09-03T03:58:24;18.70;97.10
7958;DHT22;4024;52.172;5.378;2022-09-03T04:00:51;18.80;97.10
7958;DHT22;4024;52.172;5.378;2022-09-03T04:03:18;18.70;97.40
7958;DHT22;4024;52.172;5.378;2022-09-03T04:05:54;18.70;97.60
7958;DHT22;4024;52.172;5.378;2022-09-03T04:08:20;18.70;97.60
7958;DHT22;4024;52.172;5.378;2022-09-03T04:10:46;18.70;97.60
7958;DHT22;4024;52.172;5.378;2022-09-03T04:13:13;18.70;97.70
7958;DHT22;4024;52.172;5.378;2022-09-03T04:15:38;18.70;97.80
7958;DHT22;4024;52.172;5.378;2022-09-03T04:18:04;18.70;97.90
7958;DHT22;4024;52.172;5.378;2022-09-03T04:20:31;18.70;97.90
7958;DHT22;4024;52.172;5.378;2022-09-03T04:22:59;18.70;98.10
7958;DHT22;4024;52.172;5.378;2022-09-03T04:25:25;18.70;98.00
7958;DHT22;4024;52.172;5.378;2022-09-03T04:27:51;18.70;98.10
7958;DHT22;4024;52.172;5.378;2022-09-03T04:30:17;18.60;98.10
7958;DHT22;4024;52.172;5.378;2022-09-03T04:32:43;18.60;98.10
7958;DHT22;4024;52.172;5.378;2022-09-03T04:35:19;18.60;98.20
7958;DHT22;4024;52.172;5.378;2022-09-03T04:37:46;18.60;98.40
7958;DHT22;4024;52.172;5.378;2022-09-03T04:40:12;18.60;98.40
7958;DHT22;4024;52.172;5.378;2022-09-03T04:42:37;18.50;98.40
7958;DHT22;4024;52.172;5.378;2022-09-03T04:45:03;18.50;98.50
7958;DHT22;4024;52.172;5.378;2022-09-03T04:47:29;18.50;98.60
7958;DHT22;4024;52.172;5.378;2022-09-03T04:49:55;18.50;98.60
7958;DHT22;4024;52.172;5.378;2022-09-03T04:52:20;18.50;98.70
7958;DHT22;4024;52.172;5.378;2022-09-03T04:54:46;18.50;98.90
7958;DHT22;4024;52.172;5.378;2022-09-03T04:57:11;18.60;98.80
7958;DHT22;4024;52.172;5.378;2022-09-03T04:59:38;18.50;98.80
7958;DHT22;4024;52.172;5.378;2022-09-03T05:02:05;18.60;98.80
7958;DHT22;4024;52.172;5.378;2022-09-03T05:04:32;18.60;99.00
7958;DHT22;4024;52.172;5.378;2022-09-03T05:06:58;18.60;99.00
7958;DHT22;4024;52.172;5.378;2022-09-03T05:09:24;18.60;99.00
7958;DHT22;4024;52.172;5.378;2022-09-03T05:11:49;18.60;99.10
7958;DHT22;4024;52.172;5.378;2022-09-03T05:14:15;18.50;99.00
7958;DHT22;4024;52.172;5.378;2022-09-03T05:16:41;18.60;99.10
7958;DHT22;4024;52.172;5.378;2022-09-03T05:19:06;18.60;99.40
7958;DHT22;4024;52.172;5.378;2022-09-03T05:21:33;18.60;99.40
7958;DHT22;4024;52.172;5.378;2022-09-03T05:24:00;18.60;99.40
7958;DHT22;4024;52.172;5.378;2022-09-03T05:26:29;18.50;99.40
7958;DHT22;4024;52.172;5.378;2022-09-03T05:28:57;18.50;99.60
7958;DHT22;4024;52.172;5.378;2022-09-03T05:31:25;18.50;99.70
7958;DHT22;4024;52.172;5.378;2022-09-03T05:33:57;18.50;99.70
7958;DHT22;4024;52.172;5.378;2022-09-03T05:36:29;18.50;99.80
7958;DHT22;4024;52.172;5.378;2022-09-03T05:38:55;18.50;99.90
7958;DHT22;4024;52.172;5.378;2022-09-03T05:41:22;18.50;99.90
7958;DHT22;4024;52.172;5.378;2022-09-03T05:43:49;18.50;99.90
7958;DHT22;4024;52.172;5.378;2022-09-03T05:46:20;18.50;99.90
7958;DHT22;4024;52.172;5.378;2022-09-03T05:48:45;18.50;99.90
7958;DHT22;4024;52.172;5.378;2022-09-03T05:51:16;18.40;99.90
7958;DHT22;4024;52.172;5.378;2022-09-03T05:53:44;18.50;99.90
7958;DHT22;4024;52.172;5.378;2022-09-03T05:56:13;18.50;99.90
7958;DHT22;4024;52.172;5.378;2022-09-03T05:58:40;18.50;99.90
7958;DHT22;4024;52.172;5.378;2022-09-03T06:01:27;18.50;99.90
7958;DHT22;4024;52.172;5.378;2022-09-03T06:04:13;18.50;99.90
7958;DHT22;4024;52.172;5.378;2022-09-03T06:06:43;18.50;99.90
7958;DHT22;4024;52.172;5.378;2022-09-03T06:09:14;18.50;99.90
7958;DHT22;4024;52.172;5.378;2022-09-03T06:11:42;18.50;99.90
7958;DHT22;4024;52.172;5.378;2022-09-03T06:14:10;18.50;99.90
7958;DHT22;4024;52.172;5.378;2022-09-03T06:16:44;18.50;99.90
7958;DHT22;4024;52.172;5.378;2022-09-03T06:19:11;18.50;99.90
7958;DHT22;4024;52.172;5.378;2022-09-03T06:21:40;18.60;99.90
7958;DHT22;4024;52.172;5.378;2022-09-03T06:24:18;18.50;99.90
7958;DHT22;4024;52.172;5.378;2022-09-03T06:26:44;18.60;99.90
7958;DHT22;4024;52.172;5.378;2022-09-03T06:29:11;18.60;99.90
7958;DHT22;4024;52.172;5.378;2022-09-03T06:31:37;18.60;99.90
7958;DHT22;4024;52.172;5.378;2022-09-03T06:34:03;18.60;99.90
7958;DHT22;4024;52.172;5.378;2022-09-03T06:36:30;18.60;99.90
7958;DHT22;4024;52.172;5.378;2022-09-03T06:38:56;18.70;99.90
7958;DHT22;4024;52.172;5.378;2022-09-03T06:41:28;18.70;99.90
7958;DHT22;4024;52.172;5.378;2022-09-03T06:43:59;18.70;99.90
7958;DHT22;4024;52.172;5.378;2022-09-03T06:46:34;18.80;99.90
7958;DHT22;4024;52.172;5.378;2022-09-03T06:49:03;18.80;99.90
7958;DHT22;4024;52.172;5.378;2022-09-03T06:51:30;18.90;99.90
7958;DHT22;4024;52.172;5.378;2022-09-03T06:54:01;18.90;99.90
7958;DHT22;4024;52.172;5.378;2022-09-03T06:56:27;18.90;99.90
7958;DHT22;4024;52.172;5.378;2022-09-03T06:58:56;19.00;99.90
7958;DHT22;4024;52.172;5.378;2022-09-03T07:01:25;19.00;99.90
7958;DHT22;4024;52.172;5.378;2022-09-03T07:03:53;19.10;99.90
7958;DHT22;4024;52.172;5.378;2022-09-03T07:06:23;19.10;99.90
7958;DHT22;4024;52.172;5.378;2022-09-03T07:08:49;19.20;99.90
7958;DHT22;4024;52.172;5.378;2022-09-03T07:11:16;19.20;99.90
7958;DHT22;4024;52.172;5.378;2022-09-03T07:13:45;19.30;99.90
7958;DHT22;4024;52.172;5.378;2022-09-03T07:16:23;19.40;99.90
7958;DHT22;4024;52.172;5.378;2022-09-03T07:18:50;19.50;99.90
7958;DHT22;4024;52.172;5.378;2022-09-03T07:21:24;19.50;99.90
7958;DHT22;4024;52.172;5.378;2022-09-03T07:23:51;19.60;99.90
7958;DHT22;4024;52.172;5.378;2022-09-03T07:28:46;19.70;99.90
7958;DHT22;4024;52.172;5.378;2022-09-03T07:31:15;19.70;99.90
7958;DHT22;4024;52.172;5.378;2022-09-03T07:33:44;19.80;99.90
7958;DHT22;4024;52.172;5.378;2022-09-03T07:36:17;19.80;99.90
7958;DHT22;4024;52.172;5.378;2022-09-03T07:38:43;19.90;99.90
7958;DHT22;4024;52.172;5.378;2022-09-03T07:41:10;19.90;99.90
7958;DHT22;4024;52.172;5.378;2022-09-03T07:43:42;20.00;99.90
7958;DHT22;4024;52.172;5.378;2022-09-03T07:46:09;20.10;99.90
7958;DHT22;4024;52.172;5.378;2022-09-03T07:48:38;20.10;99.90
7958;DHT22;4024;52.172;5.378;2022-09-03T07:51:04;20.10;99.90
7958;DHT22;4024;52.172;5.378;2022-09-03T07:53:30;20.20;99.90
7958;DHT22;4024;52.172;5.378;2022-09-03T07:56:07;20.30;99.90
7958;DHT22;4024;52.172;5.378;2022-09-03T07:58:34;20.40;99.90
7958;DHT22;4024;52.172;5.378;2022-09-03T08:01:08;20.40;99.90
7958;DHT22;4024;52.172;5.378;2022-09-03T08:03:35;20.50;99.90
7958;DHT22;4024;52.172;5.378;2022-09-03T08:06:02;20.60;99.90
7958;DHT22;4024;52.172;5.378;2022-09-03T08:08:28;20.60;99.90
7958;DHT22;4024;52.172;5.378;2022-09-03T08:10:55;20.70;99.90
7958;DHT22;4024;52.172;5.378;2022-09-03T08:13:23;20.70;99.90
7958;DHT22;4024;52.172;5.378;2022-09-03T08:15:55;20.80;99.90
7958;DHT22;4024;52.172;5.378;2022-09-03T08:18:21;20.90;99.90
7958;DHT22;4024;52.172;5.378;2022-09-03T08:20:47;20.90;99.90
7958;DHT22;4024;52.172;5.378;2022-09-03T08:23:13;21.00;99.90
7958;DHT22;4024;52.172;5.378;2022-09-03T08:25:40;21.10;99.90
7958;DHT22;4024;52.172;5.378;2022-09-03T08:28:05;21.20;99.90
7958;DHT22;4024;52.172;5.378;2022-09-03T08:30:31;21.20;99.90
7958;DHT22;4024;52.172;5.378;2022-09-03T08:33:01;21.30;99.70
7958;DHT22;4024;52.172;5.378;2022-09-03T08:35:29;21.40;99.70
7958;DHT22;4024;52.172;5.378;2022-09-03T08:37:59;21.40;99.30
7958;DHT22;4024;52.172;5.378;2022-09-03T08:40:31;21.50;99.50
7958;DHT22;4024;52.172;5.378;2022-09-03T08:43:17;21.60;99.20
7958;DHT22;4024;52.172;5.378;2022-09-03T08:45:44;21.70;99.00
7958;DHT22;4024;52.172;5.378;2022-09-03T08:48:15;21.80;98.40
7958;DHT22;4024;52.172;5.378;2022-09-03T08:50:44;21.90;98.00
7958;DHT22;4024;52.172;5.378;2022-09-03T08:53:35;22.00;98.20
7958;DHT22;4024;52.172;5.378;2022-09-03T08:56:10;22.00;97.90
7958;DHT22;4024;52.172;5.378;2022-09-03T08:58:37;22.10;97.60
7958;DHT22;4024;52.172;5.378;2022-09-03T09:03:46;22.30;97.30
7958;DHT22;4024;52.172;5.378;2022-09-03T09:11:39;22.50;96.40
7958;DHT22;4024;52.172;5.378;2022-09-03T09:22:04;22.90;95.80
7958;DHT22;4024;52.172;5.378;2022-09-03T09:24:38;22.90;95.10
7958;DHT22;4024;52.172;5.378;2022-09-03T09:27:06;23.00;95.00
7958;DHT22;4024;52.172;5.378;2022-09-03T09:29:35;23.10;95.20
7958;DHT22;4024;52.172;5.378;2022-09-03T09:32:01;23.10;95.00
7958;DHT22;4024;52.172;5.378;2022-09-03T09:34:36;23.20;94.70
7958;DHT22;4024;52.172;5.378;2022-09-03T09:37:06;23.30;94.70
7958;DHT22;4024;52.172;5.378;2022-09-03T09:39:34;23.30;94.30
7958;DHT22;4024;52.172;5.378;2022-09-03T09:42:03;23.40;93.90
7958;DHT22;4024;52.172;5.378;2022-09-03T09:44:33;23.40;93.70
7958;DHT22;4024;52.172;5.378;2022-09-03T09:47:20;23.50;93.90
7958;DHT22;4024;52.172;5.378;2022-09-03T09:49:57;23.60;93.80
7958;DHT22;4024;52.172;5.378;2022-09-03T09:52:26;23.70;94.00
7958;DHT22;4024;52.172;5.378;2022-09-03T09:55:09;23.80;93.90
7958;DHT22;4024;52.172;5.378;2022-09-03T09:57:39;23.90;94.10
7958;DHT22;4024;52.172;5.378;2022-09-03T10:00:16;24.00;93.70
7958;DHT22;4024;52.172;5.378;2022-09-03T10:02:50;24.10;93.60
7958;DHT22;4024;52.172;5.378;2022-09-03T10:05:28;24.10;93.00
7958;DHT22;4024;52.172;5.378;2022-09-03T10:08:20;24.20;92.40
7958;DHT22;4024;52.172;5.378;2022-09-03T10:10:48;24.20;92.60
7958;DHT22;4024;52.172;5.378;2022-09-03T10:13:34;24.30;91.90
7958;DHT22;4024;52.172;5.378;2022-09-03T10:16:22;24.40;92.10
7958;DHT22;4024;52.172;5.378;2022-09-03T10:19:15;24.50;91.50
7958;DHT22;4024;52.172;5.378;2022-09-03T10:21:50;24.60;91.70
7958;DHT22;4024;52.172;5.378;2022-09-03T10:26:47;24.80;90.40
7958;DHT22;4024;52.172;5.378;2022-09-03T10:29:18;24.80;90.20
7958;DHT22;4024;52.172;5.378;2022-09-03T10:37:39;25.00;89.60
7958;DHT22;4024;52.172;5.378;2022-09-03T10:45:59;25.20;86.90
7958;DHT22;4024;52.172;5.378;2022-09-03T10:51:24;25.40;85.80
7958;DHT22;4024;52.172;5.378;2022-09-03T10:53:54;25.40;86.20
7958;DHT22;4024;52.172;5.378;2022-09-03T11:04:58;25.70;84.40
7958;DHT22;4024;52.172;5.378;2022-09-03T11:07:34;25.80;84.40
7958;DHT22;4024;52.172;5.378;2022-09-03T11:10:21;25.80;82.80
7958;DHT22;4024;52.172;5.378;2022-09-03T11:15:42;26.00;82.30
7958;DHT22;4024;52.172;5.378;2022-09-03T11:18:25;26.00;82.30
7958;DHT22;4024;52.172;5.378;2022-09-03T11:20:55;26.10;82.10
7958;DHT22;4024;52.172;5.378;2022-09-03T11:23:28;26.20;81.30
7958;DHT22;4024;52.172;5.378;2022-09-03T11:25:57;26.20;80.30
7958;DHT22;4024;52.172;5.378;2022-09-03T11:28:40;26.30;79.80
7958;DHT22;4024;52.172;5.378;2022-09-03T11:31:30;26.30;81.00
7958;DHT22;4024;52.172;5.378;2022-09-03T11:34:04;26.40;80.60
7958;DHT22;4024;52.172;5.378;2022-09-03T11:36:33;26.50;80.40
7958;DHT22;4024;52.172;5.378;2022-09-03T11:39:00;26.60;80.50
7958;DHT22;4024;52.172;5.378;2022-09-03T11:41:37;26.60;78.80
7958;DHT22;4024;52.172;5.378;2022-09-03T11:44:18;26.70;78.30
7958;DHT22;4024;52.172;5.378;2022-09-03T11:46:55;26.70;77.60
7958;DHT22;4024;52.172;5.378;2022-09-03T11:49:29;26.80;78.10
7958;DHT22;4024;52.172;5.378;2022-09-03T11:51:59;26.80;77.20
7958;DHT22;4024;52.172;5.378;2022-09-03T11:54:25;26.90;77.50
7958;DHT22;4024;52.172;5.378;2022-09-03T11:57:11;26.90;77.40
7958;DHT22;4024;52.172;5.378;2022-09-03T11:59:42;27.00;76.80
7958;DHT22;4024;52.172;5.378;2022-09-03T12:02:26;27.10;75.60
7958;DHT22;4024;52.172;5.378;2022-09-03T12:10:36;27.20;73.80
7958;DHT22;4024;52.172;5.378;2022-09-03T12:18:54;27.40;72.30
7958;DHT22;4024;52.172;5.378;2022-09-03T12:21:20;27.50;71.00
7958;DHT22;4024;52.172;5.378;2022-09-03T12:23:50;27.50;70.30
7958;DHT22;4024;52.172;5.378;2022-09-03T12:28:50;27.60;70.20
7958;DHT22;4024;52.172;5.378;2022-09-03T12:31:18;27.60;69.90
7958;DHT22;4024;52.172;5.378;2022-09-03T12:36:16;27.70;70.10
7958;DHT22;4024;52.172;5.378;2022-09-03T12:38:42;27.80;70.00
7958;DHT22;4024;52.172;5.378;2022-09-03T12:41:27;27.80;67.60
7958;DHT22;4024;52.172;5.378;2022-09-03T12:43:57;27.80;68.30
7958;DHT22;4024;52.172;5.378;2022-09-03T12:46:29;27.80;67.70
7958;DHT22;4024;52.172;5.378;2022-09-03T12:51:24;28.00;65.10
7958;DHT22;4024;52.172;5.378;2022-09-03T12:53:50;28.00;64.60
7958;DHT22;4024;52.172;5.378;2022-09-03T12:56:18;28.10;65.40
7958;DHT22;4024;52.172;5.378;2022-09-03T12:58:56;28.10;66.00
7958;DHT22;4024;52.172;5.378;2022-09-03T13:01:28;28.10;66.00
7958;DHT22;4024;52.172;5.378;2022-09-03T13:04:07;28.20;65.30
7958;DHT22;4024;52.172;5.378;2022-09-03T13:07:03;28.30;63.70
7958;DHT22;4024;52.172;5.378;2022-09-03T13:09:33;28.30;63.60
7958;DHT22;4024;52.172;5.378;2022-09-03T13:11:59;28.30;63.50
7958;DHT22;4024;52.172;5.378;2022-09-03T13:14:41;28.40;63.50
7958;DHT22;4024;52.172;5.378;2022-09-03T13:17:26;28.40;63.40
7958;DHT22;4024;52.172;5.378;2022-09-03T13:20:14;28.40;63.40
7958;DHT22;4024;52.172;5.378;2022-09-03T13:23:09;28.50;64.10
7958;DHT22;4024;52.172;5.378;2022-09-03T13:28:39;28.50;63.40
7958;DHT22;4024;52.172;5.378;2022-09-03T13:31:30;28.60;63.60
7958;DHT22;4024;52.172;5.378;2022-09-03T13:34:14;28.60;63.90
7958;DHT22;4024;52.172;5.378;2022-09-03T13:37:14;28.60;64.20
7958;DHT22;4024;52.172;5.378;2022-09-03T13:39:53;28.60;63.30
7958;DHT22;4024;52.172;5.378;2022-09-03T13:42:34;28.70;63.00
7958;DHT22;4024;52.172;5.378;2022-09-03T13:48:09;28.80;63.00
7958;DHT22;4024;52.172;5.378;2022-09-03T13:51:36;28.80;62.50
7958;DHT22;4024;52.172;5.378;2022-09-03T13:57:04;28.90;62.80
7958;DHT22;4024;52.172;5.378;2022-09-03T13:59:59;28.90;62.60
7958;DHT22;4024;52.172;5.378;2022-09-03T14:08:22;29.00;62.20
7958;DHT22;4024;52.172;5.378;2022-09-03T14:11:02;28.90;62.50
7958;DHT22;4024;52.172;5.378;2022-09-03T14:13:51;29.00;63.20
7958;DHT22;4024;52.172;5.378;2022-09-03T14:16:30;29.00;62.70
7958;DHT22;4024;52.172;5.378;2022-09-03T14:21:56;29.20;63.10
7958;DHT22;4024;52.172;5.378;2022-09-03T14:24:42;29.20;62.40
7958;DHT22;4024;52.172;5.378;2022-09-03T14:27:09;29.20;61.90
7958;DHT22;4024;52.172;5.378;2022-09-03T14:29:36;29.20;62.20
7958;DHT22;4024;52.172;5.378;2022-09-03T14:32:27;29.20;61.90
7958;DHT22;4024;52.172;5.378;2022-09-03T14:35:15;29.30;61.60
7958;DHT22;4024;52.172;5.378;2022-09-03T14:46:18;29.40;62.00
7958;DHT22;4024;52.172;5.378;2022-09-03T14:57:36;29.40;62.10
7958;DHT22;4024;52.172;5.378;2022-09-03T15:00:17;29.40;61.80
7958;DHT22;4024;52.172;5.378;2022-09-03T15:10:45;29.40;61.30
7958;DHT22;4024;52.172;5.378;2022-09-03T15:13:48;29.50;61.80
7958;DHT22;4024;52.172;5.378;2022-09-03T15:25:48;29.50;61.00
7958;DHT22;4024;52.172;5.378;2022-09-03T15:28:49;29.50;60.40
7958;DHT22;4024;52.172;5.378;2022-09-03T15:36:50;29.50;61.60
7958;DHT22;4024;52.172;5.378;2022-09-03T15:39:29;29.50;61.90
7958;DHT22;4024;52.172;5.378;2022-09-03T15:41:58;29.50;62.20
7958;DHT22;4024;52.172;5.378;2022-09-03T15:44:35;29.50;61.60
7958;DHT22;4024;52.172;5.378;2022-09-03T15:47:08;29.50;61.80
7958;DHT22;4024;52.172;5.378;2022-09-03T15:49:58;29.50;61.60
7958;DHT22;4024;52.172;5.378;2022-09-03T15:52:54;29.50;61.10
7958;DHT22;4024;52.172;5.378;2022-09-03T15:55:36;29.50;60.40
7958;DHT22;4024;52.172;5.378;2022-09-03T15:58:42;29.50;60.20
7958;DHT22;4024;52.172;5.378;2022-09-03T16:01:24;29.50;60.80
7958;DHT22;4024;52.172;5.378;2022-09-03T16:07:15;29.50;60.80
7958;DHT22;4024;52.172;5.378;2022-09-03T16:10:11;29.40;60.90
7958;DHT22;4024;52.172;5.378;2022-09-03T16:12:52;29.40;61.40
7958;DHT22;4024;52.172;5.378;2022-09-03T16:15:39;29.40;61.80
7958;DHT22;4024;52.172;5.378;2022-09-03T16:18:28;29.40;61.70
7958;DHT22;4024;52.172;5.378;2022-09-03T16:21:10;29.30;61.90
7958;DHT22;4024;52.172;5.378;2022-09-03T16:23:58;29.40;60.20
7958;DHT22;4024;52.172;5.378;2022-09-03T16:26:50;29.30;60.00
7958;DHT22;4024;52.172;5.378;2022-09-03T16:29:20;29.30;60.00
7958;DHT22;4024;52.172;5.378;2022-09-03T16:37:26;29.30;59.30
7958;DHT22;4024;52.172;5.378;2022-09-03T16:51:05;29.40;59.80
7958;DHT22;4024;52.172;5.378;2022-09-03T16:58:51;29.30;58.90
7958;DHT22;4024;52.172;5.378;2022-09-03T17:08:09;29.20;59.00
7958;DHT22;4024;52.172;5.378;2022-09-03T17:10:45;29.20;58.90
7958;DHT22;4024;52.172;5.378;2022-09-03T17:13:39;29.10;58.70
7958;DHT22;4024;52.172;5.378;2022-09-03T17:23:57;29.00;58.70
7958;DHT22;4024;52.172;5.378;2022-09-03T17:32:24;28.90;59.10
7958;DHT22;4024;52.172;5.378;2022-09-03T17:34:54;28.80;59.20
7958;DHT22;4024;52.172;5.378;2022-09-03T17:40:27;28.70;60.00
7958;DHT22;4024;52.172;5.378;2022-09-03T17:43:23;28.70;60.50
7958;DHT22;4024;52.172;5.378;2022-09-03T17:46:05;28.60;60.70
7958;DHT22;4024;52.172;5.378;2022-09-03T17:49:08;28.50;61.00
7958;DHT22;4024;52.172;5.378;2022-09-03T17:52:05;28.40;61.30
7958;DHT22;4024;52.172;5.378;2022-09-03T17:54:42;28.40;61.80
7958;DHT22;4024;52.172;5.378;2022-09-03T17:57:36;28.30;62.20
7958;DHT22;4024;52.172;5.378;2022-09-03T18:00:09;28.30;62.90
7958;DHT22;4024;52.172;5.378;2022-09-03T18:02:49;28.20;63.20
7958;DHT22;4024;52.172;5.378;2022-09-03T18:05:23;28.10;63.70
7958;DHT22;4024;52.172;5.378;2022-09-03T18:10:43;28.00;64.20
7958;DHT22;4024;52.172;5.378;2022-09-03T18:13:15;27.90;64.70
7958;DHT22;4024;52.172;5.378;2022-09-03T18:15:53;27.90;64.90
7958;DHT22;4024;52.172;5.378;2022-09-03T18:18:29;27.80;65.00
7958;DHT22;4024;52.172;5.378;2022-09-03T18:21:02;27.70;65.30
7958;DHT22;4024;52.172;5.378;2022-09-03T18:26:43;27.60;66.00
7958;DHT22;4024;52.172;5.378;2022-09-03T18:32:16;27.40;67.20
7958;DHT22;4024;52.172;5.378;2022-09-03T18:35:00;27.30;67.50
7958;DHT22;4024;52.172;5.378;2022-09-03T18:37:44;27.30;67.80
7958;DHT22;4024;52.172;5.378;2022-09-03T18:40:41;27.20;68.60
7958;DHT22;4024;52.172;5.378;2022-09-03T18:43:59;27.10;69.80
7958;DHT22;4024;52.172;5.378;2022-09-03T18:50:21;26.90;71.30
7958;DHT22;4024;52.172;5.378;2022-09-03T18:53:16;26.90;72.30
7958;DHT22;4024;52.172;5.378;2022-09-03T18:59:30;26.70;73.50
7958;DHT22;4024;52.172;5.378;2022-09-03T19:05:53;26.50;74.70
7958;DHT22;4024;52.172;5.378;2022-09-03T19:12:34;26.30;75.90
7958;DHT22;4024;52.172;5.378;2022-09-03T19:15:23;26.20;76.30
7958;DHT22;4024;52.172;5.378;2022-09-03T19:18:31;26.10;78.10
7958;DHT22;4024;52.172;5.378;2022-09-03T19:21:27;26.10;79.50
7958;DHT22;4024;52.172;5.378;2022-09-03T19:24:12;26.00;79.40
7958;DHT22;4024;52.172;5.378;2022-09-03T19:30:15;25.80;80.60
7958;DHT22;4024;52.172;5.378;2022-09-03T19:33:44;25.80;81.60
7958;DHT22;4024;52.172;5.378;2022-09-03T19:36:43;25.70;81.30
7958;DHT22;4024;52.172;5.378;2022-09-03T19:40:02;25.60;83.20
7958;DHT22;4024;52.172;5.378;2022-09-03T19:42:57;25.60;83.00
7958;DHT22;4024;52.172;5.378;2022-09-03T19:45:53;25.50;83.50
7958;DHT22;4024;52.172;5.378;2022-09-03T19:52:08;25.40;85.20
7958;DHT22;4024;52.172;5.378;2022-09-03T19:54:56;25.30;86.10
7958;DHT22;4024;52.172;5.378;2022-09-03T19:57:43;25.30;86.30
7958;DHT22;4024;52.172;5.378;2022-09-03T20:00:30;25.20;87.30
7958;DHT22;4024;52.172;5.378;2022-09-03T20:03:16;25.10;88.00
7958;DHT22;4024;52.172;5.378;2022-09-03T20:06:02;25.10;88.20
7958;DHT22;4024;52.172;5.378;2022-09-03T20:08:48;25.00;89.10
7958;DHT22;4024;52.172;5.378;2022-09-03T20:11:34;25.00;89.40
7958;DHT22;4024;52.172;5.378;2022-09-03T20:14:02;24.90;90.00
7958;DHT22;4024;52.172;5.378;2022-09-03T20:19:20;24.80;90.90
7958;DHT22;4024;52.172;5.378;2022-09-03T20:22:08;24.80;91.30
7958;DHT22;4024;52.172;5.378;2022-09-03T20:27:49;24.60;91.20
7958;DHT22;4024;52.172;5.378;2022-09-03T20:30:17;24.60;91.70
7958;DHT22;4024;52.172;5.378;2022-09-03T20:33:02;24.50;91.90
7958;DHT22;4024;52.172;5.378;2022-09-03T20:38:50;24.40;92.40
7958;DHT22;4024;52.172;5.378;2022-09-03T20:47:37;24.30;93.00
7958;DHT22;4024;52.172;5.378;2022-09-03T20:55:20;24.10;93.70
7958;DHT22;4024;52.172;5.378;2022-09-03T20:58:09;24.00;94.30
7958;DHT22;4024;52.172;5.378;2022-09-03T21:03:20;24.00;94.20
7958;DHT22;4024;52.172;5.378;2022-09-03T21:09:00;23.90;94.70
7958;DHT22;4024;52.172;5.378;2022-09-03T21:14:31;23.80;95.20
7958;DHT22;4024;52.172;5.378;2022-09-03T21:17:37;23.80;95.10
7958;DHT22;4024;52.172;5.378;2022-09-03T21:23:32;23.60;95.50
7958;DHT22;4024;52.172;5.378;2022-09-03T21:31:44;23.50;96.60
7958;DHT22;4024;52.172;5.378;2022-09-03T21:34:29;23.50;97.20
7958;DHT22;4024;52.172;5.378;2022-09-03T21:36:55;23.40;97.10
7958;DHT22;4024;52.172;5.378;2022-09-03T21:39:54;23.40;97.50
7958;DHT22;4024;52.172;5.378;2022-09-03T21:42:36;23.40;97.20
7958;DHT22;4024;52.172;5.378;2022-09-03T21:45:17;23.30;97.60
7958;DHT22;4024;52.172;5.378;2022-09-03T21:47:52;23.30;97.80
7958;DHT22;4024;52.172;5.378;2022-09-03T21:50:32;23.30;98.00
7958;DHT22;4024;52.172;5.378;2022-09-03T21:53:10;23.20;97.90
7958;DHT22;4024;52.172;5.378;2022-09-03T21:56:05;23.20;98.20
7958;DHT22;4024;52.172;5.378;2022-09-03T22:01:13;23.10;98.20
7958;DHT22;4024;52.172;5.378;2022-09-03T22:03:41;23.10;98.30